createdAt,value
2017-12-02T00:02:08.392Z,29.80
2017-12-02T00:04:36.528Z,29.27
2017-12-02T00:07:03.468Z,27.37
2017-12-02T00:09:31.243Z,23.58
2017-12-02T00:11:58.324Z,23.15
2017-12-02T00:14:25.337Z,27.75
2017-12-02T00:16:52.514Z,31.00
2017-12-02T00:19:19.544Z,32.85
2017-12-02T00:21:46.799Z,35.67
2017-12-02T00:24:13.889Z,32.92
2017-12-02T00:26:40.971Z,30.30
2017-12-02T00:29:08.093Z,30.88
2017-12-02T00:31:35.135Z,29.20
2017-12-02T00:34:03.297Z,29.33
2017-12-02T00:36:32.081Z,25.08
2017-12-02T00:38:59.132Z,24.77
2017-12-02T00:41:26.226Z,29.55
2017-12-02T00:43:53.380Z,31.75
2017-12-02T00:46:20.393Z,28.40
2017-12-02T00:48:47.440Z,32.00
2017-12-02T00:51:14.473Z,31.27
2017-12-02T00:53:41.615Z,28.90
2017-12-02T00:56:09.399Z,32.40
2017-12-02T00:58:36.445Z,35.00
2017-12-02T01:01:03.494Z,33.38
2017-12-02T01:03:30.573Z,33.20
2017-12-02T01:05:57.623Z,34.58
2017-12-02T01:08:24.635Z,28.77
2017-12-02T01:10:51.955Z,27.33
2017-12-02T01:13:19.024Z,24.48
2017-12-02T01:15:46.826Z,28.35
2017-12-02T01:18:13.912Z,26.75
2017-12-02T01:20:40.915Z,24.63
2017-12-02T01:23:07.999Z,29.27
2017-12-02T01:25:35.191Z,26.42
2017-12-02T01:28:02.313Z,34.05
2017-12-02T01:30:29.393Z,29.17
2017-12-02T01:32:57.192Z,26.62
2017-12-02T01:35:24.230Z,26.77
2017-12-02T01:37:53.946Z,23.65
2017-12-02T01:40:23.817Z,30.12
2017-12-02T01:42:54.496Z,29.00
2017-12-02T01:45:24.092Z,26.62
2017-12-02T01:47:54.328Z,23.77
2017-12-02T01:50:23.802Z,27.42
2017-12-02T01:52:53.337Z,25.58
2017-12-02T01:55:23.586Z,24.20
2017-12-02T01:57:51.550Z,26.45
2017-12-02T02:00:18.557Z,28.27
2017-12-02T02:02:46.405Z,27.23
2017-12-02T02:05:13.455Z,23.27
2017-12-02T02:07:41.349Z,29.02
2017-12-02T02:10:08.363Z,25.92
2017-12-02T02:12:35.448Z,24.42
2017-12-02T02:15:02.571Z,28.42
2017-12-02T02:17:29.618Z,34.05
2017-12-02T02:19:56.716Z,36.40
2017-12-02T02:22:23.786Z,43.00
2017-12-02T02:24:50.856Z,31.35
2017-12-02T02:27:17.899Z,31.80
2017-12-02T02:29:44.893Z,34.28
2017-12-02T02:32:11.986Z,38.55
2017-12-02T02:34:39.270Z,32.60
2017-12-02T02:37:07.075Z,46.53
2017-12-02T02:39:34.147Z,67.60
2017-12-02T02:42:01.194Z,38.00
2017-12-02T02:44:28.308Z,100.07
2017-12-02T02:46:56.035Z,97.10
2017-12-02T02:49:23.139Z,65.28
2017-12-02T02:51:50.247Z,64.32
2017-12-02T02:54:17.339Z,55.15
2017-12-02T02:56:44.585Z,49.90
2017-12-02T02:59:11.689Z,123.00
2017-12-02T03:01:38.690Z,75.07
2017-12-02T03:04:05.789Z,89.18
2017-12-02T03:06:32.883Z,52.53
2017-12-02T03:09:00.085Z,106.57
2017-12-02T03:11:27.328Z,239.15
2017-12-02T03:13:54.564Z,189.55
2017-12-02T03:16:21.703Z,192.77
2017-12-02T03:18:49.641Z,166.43
2017-12-02T03:21:17.574Z,166.12
2017-12-02T03:23:44.696Z,143.60
2017-12-02T03:26:11.870Z,110.82
2017-12-02T03:28:39.114Z,173.82
2017-12-02T03:31:06.235Z,114.68
2017-12-02T03:33:33.452Z,94.90
2017-12-02T03:36:00.546Z,126.57
2017-12-02T03:38:27.686Z,62.80
2017-12-02T03:40:55.052Z,62.60
2017-12-02T03:43:22.268Z,88.45
2017-12-02T03:45:49.521Z,68.43
2017-12-02T03:48:16.788Z,53.90
2017-12-02T03:50:44.582Z,35.30
2017-12-02T03:53:11.860Z,66.82
2017-12-02T03:55:39.111Z,84.62
2017-12-02T03:58:06.325Z,36.85
2017-12-02T04:00:33.513Z,52.53
2017-12-02T04:03:00.794Z,56.33
2017-12-02T04:05:28.716Z,102.55
2017-12-02T04:07:55.822Z,86.22
2017-12-02T04:10:23.104Z,65.28
2017-12-02T04:12:50.961Z,82.00
2017-12-02T04:15:18.889Z,69.95
2017-12-02T04:17:46.165Z,63.35
2017-12-02T04:20:13.320Z,47.03
2017-12-02T04:22:40.400Z,81.25
2017-12-02T04:25:08.207Z,43.65
2017-12-02T04:27:35.421Z,61.70
2017-12-02T04:30:02.598Z,68.50
2017-12-02T04:32:29.693Z,67.80
2017-12-02T04:34:56.908Z,60.17
2017-12-02T04:37:24.055Z,61.88
2017-12-02T04:39:51.169Z,76.40
2017-12-02T04:42:18.260Z,68.60
2017-12-02T04:44:45.454Z,59.90
2017-12-02T04:47:12.719Z,73.18
2017-12-02T04:49:39.998Z,65.45
2017-12-02T04:52:07.020Z,67.82
2017-12-02T04:54:34.206Z,51.15
2017-12-02T04:57:01.353Z,70.12
2017-12-02T04:59:28.495Z,77.40
2017-12-02T05:01:55.590Z,62.40
2017-12-02T05:04:22.729Z,48.95
2017-12-02T05:06:49.823Z,76.90
2017-12-02T05:09:17.604Z,99.87
2017-12-02T05:11:44.803Z,90.45
2017-12-02T05:14:11.923Z,68.57
2017-12-02T05:16:39.074Z,72.68
2017-12-02T05:19:06.314Z,52.53
2017-12-02T05:21:33.385Z,110.85
2017-12-02T05:24:00.651Z,41.95
2017-12-02T05:26:30.663Z,88.18
2017-12-02T05:29:07.364Z,124.90
2017-12-02T05:31:35.334Z,173.23
2017-12-02T05:34:02.507Z,110.97
2017-12-02T05:36:32.696Z,81.15
2017-12-02T05:38:59.811Z,73.37
2017-12-02T05:41:27.085Z,91.95
2017-12-02T05:43:54.282Z,129.68
2017-12-02T05:46:21.522Z,111.35
2017-12-02T05:48:48.648Z,126.45
2017-12-02T05:51:15.799Z,61.55
2017-12-02T05:53:43.004Z,96.20
2017-12-02T05:56:09.972Z,68.20
2017-12-02T05:58:37.207Z,76.20
2017-12-02T06:01:05.093Z,105.35
2017-12-02T06:03:32.268Z,38.88
2017-12-02T06:05:59.511Z,130.52
2017-12-02T06:08:26.705Z,143.98
2017-12-02T06:10:54.068Z,101.72
2017-12-02T06:13:21.291Z,120.40
2017-12-02T06:15:48.624Z,76.00
2017-12-02T06:18:15.813Z,55.83
2017-12-02T06:20:43.022Z,63.97
2017-12-02T06:23:10.290Z,68.35
2017-12-02T06:25:37.506Z,103.82
2017-12-02T06:28:05.352Z,71.87
2017-12-02T06:30:32.453Z,76.45
2017-12-02T06:32:59.639Z,67.72
2017-12-02T06:35:26.728Z,60.50
2017-12-02T06:37:54.643Z,72.03
2017-12-02T06:40:21.739Z,52.92
2017-12-02T06:42:49.552Z,42.62
2017-12-02T06:45:16.767Z,75.28
2017-12-02T06:47:43.861Z,80.93
2017-12-02T06:50:11.002Z,68.43
2017-12-02T06:52:38.208Z,49.78
2017-12-02T06:55:06.183Z,47.17
2017-12-02T06:57:34.025Z,67.87
2017-12-02T07:00:01.212Z,91.20
2017-12-02T07:02:36.823Z,72.97
2017-12-02T07:05:08.572Z,91.10
2017-12-02T07:07:36.632Z,80.97
2017-12-02T07:10:03.924Z,70.90
2017-12-02T07:12:42.831Z,72.93
2017-12-02T07:15:11.012Z,55.70
2017-12-02T07:17:38.892Z,46.28
2017-12-02T07:20:11.860Z,74.37
2017-12-02T07:22:39.183Z,54.65
2017-12-02T07:25:09.722Z,59.42
2017-12-02T07:27:41.027Z,88.12
2017-12-02T07:30:09.074Z,151.80
2017-12-02T07:32:38.574Z,105.82
2017-12-02T07:35:05.667Z,79.55
2017-12-02T07:37:34.406Z,110.55
2017-12-02T07:40:02.335Z,64.18
2017-12-02T07:42:33.673Z,72.20
2017-12-02T07:45:00.970Z,59.33
2017-12-02T07:47:28.178Z,84.37
2017-12-02T07:49:57.886Z,66.10
2017-12-02T07:52:28.373Z,63.85
2017-12-02T07:54:56.390Z,91.63
2017-12-02T07:57:25.330Z,99.05
2017-12-02T07:59:58.996Z,79.47
2017-12-02T08:02:36.736Z,91.90
2017-12-02T08:05:03.933Z,71.00
2017-12-02T08:07:31.842Z,127.50
2017-12-02T08:09:58.910Z,66.47
2017-12-02T08:12:26.110Z,47.85
2017-12-02T08:15:05.392Z,36.00
2017-12-02T08:17:33.404Z,49.17
2017-12-02T08:20:01.367Z,55.88
2017-12-02T08:22:28.536Z,75.57
2017-12-02T08:24:55.674Z,74.32
2017-12-02T08:27:23.071Z,59.88
2017-12-02T08:29:50.172Z,46.88
2017-12-02T08:32:18.080Z,38.95
2017-12-02T08:34:45.202Z,75.40
2017-12-02T08:37:13.246Z,75.53
2017-12-02T08:39:40.404Z,81.82
2017-12-02T08:42:07.512Z,42.45
2017-12-02T08:44:50.325Z,66.57
2017-12-02T08:47:19.161Z,38.60
2017-12-02T08:49:46.356Z,28.77
2017-12-02T08:52:13.486Z,37.75
2017-12-02T08:54:44.750Z,49.92
2017-12-02T08:57:11.948Z,37.72
2017-12-02T08:59:39.069Z,39.00
2017-12-02T09:02:06.189Z,34.42
2017-12-02T09:04:34.715Z,39.00
2017-12-02T09:07:02.283Z,28.95
2017-12-02T09:09:35.515Z,31.77
2017-12-02T09:12:11.029Z,28.02
2017-12-02T09:14:49.084Z,29.92
2017-12-02T09:17:20.831Z,41.92
2017-12-02T09:19:52.948Z,43.38
2017-12-02T09:22:27.336Z,48.75
2017-12-02T09:24:59.103Z,82.68
2017-12-02T09:27:36.367Z,92.30
2017-12-02T09:30:11.015Z,52.62
2017-12-02T09:32:47.360Z,55.08
2017-12-02T09:35:15.737Z,45.17
2017-12-02T09:37:42.915Z,36.10
2017-12-02T09:40:10.751Z,41.70
2017-12-02T09:42:39.037Z,38.55
2017-12-02T09:45:14.768Z,27.95
2017-12-02T09:47:45.178Z,29.75
2017-12-02T09:50:18.308Z,44.30
2017-12-02T09:52:47.638Z,32.83
2017-12-02T09:55:16.395Z,33.70
2017-12-02T09:57:43.501Z,29.02
2017-12-02T10:00:13.298Z,48.58
2017-12-02T10:02:44.454Z,23.83
2017-12-02T10:05:15.204Z,28.65
2017-12-02T10:07:47.361Z,28.25
2017-12-02T10:10:16.824Z,31.67
2017-12-02T10:12:50.535Z,34.05
2017-12-02T10:15:17.732Z,35.22
2017-12-02T10:17:53.439Z,35.30
2017-12-02T10:20:27.233Z,32.55
2017-12-02T10:22:58.141Z,36.92
2017-12-02T10:25:33.888Z,33.20
2017-12-02T10:28:13.046Z,29.12
2017-12-02T10:30:43.308Z,31.08
2017-12-02T10:33:13.096Z,24.83
2017-12-02T10:35:47.583Z,31.42
2017-12-02T10:38:24.828Z,30.35
2017-12-02T10:40:55.364Z,29.23
2017-12-02T10:43:23.076Z,36.90
2017-12-02T10:45:50.430Z,32.30
2017-12-02T10:48:17.697Z,39.17
2017-12-02T10:50:44.858Z,35.45
2017-12-02T10:53:11.978Z,35.90
2017-12-02T10:55:39.145Z,25.90
2017-12-02T10:58:06.303Z,25.50
2017-12-02T11:00:33.468Z,26.60
2017-12-02T11:03:01.256Z,25.98
2017-12-02T11:05:28.332Z,36.08
2017-12-02T11:07:55.501Z,38.00
2017-12-02T11:10:22.478Z,44.15
2017-12-02T11:12:49.799Z,32.90
2017-12-02T11:15:16.925Z,37.50
2017-12-02T11:17:47.119Z,36.08
2017-12-02T11:20:15.807Z,40.92
2017-12-02T11:22:43.046Z,36.92
2017-12-02T11:25:11.169Z,33.45
2017-12-02T11:27:39.071Z,38.60
2017-12-02T11:30:07.150Z,36.95
2017-12-02T11:32:35.547Z,30.20
2017-12-02T11:35:03.386Z,36.72
2017-12-02T11:37:33.537Z,44.20
2017-12-02T11:40:02.684Z,39.67
2017-12-02T11:42:32.421Z,34.67
2017-12-02T11:45:05.061Z,38.78
2017-12-02T11:47:34.983Z,30.52
2017-12-02T11:50:02.039Z,37.22
2017-12-02T11:52:29.903Z,34.55
2017-12-02T11:54:57.782Z,41.85
2017-12-02T11:57:27.678Z,38.25
2017-12-02T11:59:54.656Z,40.67
2017-12-02T12:02:21.877Z,34.67
2017-12-02T12:04:48.894Z,38.20
2017-12-02T12:07:16.900Z,39.63
2017-12-02T12:09:43.890Z,29.40
2017-12-02T12:12:10.991Z,33.10
2017-12-02T12:14:38.035Z,32.60
2017-12-02T12:17:05.221Z,36.25
2017-12-02T12:19:34.580Z,40.50
2017-12-02T12:22:08.909Z,40.10
2017-12-02T12:24:40.576Z,39.00
2017-12-02T12:27:11.297Z,41.75
2017-12-02T12:29:41.473Z,35.72
2017-12-02T12:32:08.484Z,32.35
2017-12-02T12:34:35.618Z,31.12
2017-12-02T12:37:09.590Z,41.08
2017-12-02T12:39:37.275Z,41.45
2017-12-02T12:42:04.285Z,41.17
2017-12-02T12:44:31.372Z,32.33
2017-12-02T12:47:01.466Z,45.05
2017-12-02T12:49:29.973Z,36.17
2017-12-02T12:51:59.494Z,39.70
2017-12-02T12:54:27.878Z,32.42
2017-12-02T12:56:56.068Z,39.85
2017-12-02T12:59:24.200Z,35.72
2017-12-02T13:01:51.597Z,33.45
2017-12-02T13:04:20.446Z,31.92
2017-12-02T13:06:47.532Z,40.67
2017-12-02T13:09:17.885Z,38.72
2017-12-02T13:11:46.093Z,33.47
2017-12-02T13:14:14.076Z,34.20
2017-12-02T13:16:40.966Z,33.47
2017-12-02T13:19:10.714Z,28.70
2017-12-02T13:21:37.864Z,33.53
2017-12-02T13:24:04.740Z,38.22
2017-12-02T13:26:32.361Z,39.38
2017-12-02T13:28:59.297Z,34.90
2017-12-02T13:31:26.232Z,35.03
2017-12-02T13:33:53.108Z,40.03
2017-12-02T13:36:20.047Z,35.58
2017-12-02T13:38:47.147Z,43.63
2017-12-02T13:41:14.860Z,36.25
2017-12-02T13:43:41.846Z,46.40
2017-12-02T13:46:08.765Z,44.47
2017-12-02T13:48:35.655Z,49.20
2017-12-02T13:51:02.605Z,40.25
2017-12-02T13:53:29.503Z,43.50
2017-12-02T13:55:56.432Z,51.47
2017-12-02T13:58:34.088Z,38.47
2017-12-02T14:01:01.176Z,40.22
2017-12-02T14:03:28.089Z,41.67
2017-12-02T14:05:55.135Z,39.75
2017-12-02T14:08:22.451Z,39.65
2017-12-02T14:10:52.231Z,36.50
2017-12-02T14:13:20.956Z,44.38
2017-12-02T14:15:48.187Z,37.67
2017-12-02T14:18:15.816Z,42.95
2017-12-02T14:20:42.682Z,46.05
2017-12-02T14:23:09.665Z,35.65
2017-12-02T14:25:36.531Z,31.25
2017-12-02T14:28:04.231Z,32.28
2017-12-02T14:30:31.236Z,34.45
2017-12-02T14:32:58.855Z,39.08
2017-12-02T14:35:25.872Z,32.40
2017-12-02T14:37:52.880Z,34.97
2017-12-02T14:40:19.768Z,38.70
2017-12-02T14:42:46.796Z,30.12
2017-12-02T14:45:14.576Z,32.50
2017-12-02T14:47:41.448Z,32.45
2017-12-02T14:50:08.440Z,28.58
2017-12-02T14:52:36.096Z,35.10
2017-12-02T14:55:03.791Z,37.58
2017-12-02T14:57:30.712Z,33.83
2017-12-02T14:59:57.582Z,35.33
2017-12-02T15:02:24.552Z,37.15
2017-12-02T15:04:51.411Z,31.95
2017-12-02T15:07:18.274Z,30.40
2017-12-02T15:09:45.240Z,31.65
2017-12-02T15:12:12.379Z,33.53
2017-12-02T15:14:40.260Z,31.98
2017-12-02T15:17:07.985Z,34.15
2017-12-02T15:19:34.982Z,42.90
2017-12-02T15:22:02.659Z,38.72
2017-12-02T15:24:29.512Z,39.05
2017-12-02T15:26:59.166Z,33.60
2017-12-02T15:29:34.972Z,33.20
2017-12-02T15:32:04.699Z,41.40
2017-12-02T15:34:32.917Z,34.45
2017-12-02T15:37:15.226Z,33.40
2017-12-02T15:39:46.547Z,37.88
2017-12-02T15:42:17.700Z,41.25
2017-12-02T15:44:48.177Z,30.55
2017-12-02T15:47:17.584Z,33.60
2017-12-02T15:49:45.318Z,32.80
2017-12-02T15:52:25.292Z,40.78
2017-12-02T15:55:03.687Z,43.33
2017-12-02T15:57:37.839Z,35.83
2017-12-02T16:00:05.688Z,38.28
2017-12-02T16:02:45.419Z,29.10
2017-12-02T16:05:16.141Z,36.30
2017-12-02T16:07:52.572Z,27.27
2017-12-02T16:10:30.129Z,33.72
2017-12-02T16:13:10.904Z,30.45
2017-12-02T16:15:39.189Z,33.47
2017-12-02T16:18:20.189Z,28.12
2017-12-02T16:20:57.880Z,30.33
2017-12-02T16:23:37.485Z,31.25
2017-12-02T16:26:04.943Z,28.90
2017-12-02T16:28:44.038Z,34.50
2017-12-02T16:34:08.896Z,32.90
2017-12-02T16:36:48.967Z,29.52
2017-12-02T16:39:30.244Z,31.17
2017-12-02T16:42:03.711Z,31.30
2017-12-02T16:44:32.351Z,38.00
2017-12-02T16:47:08.673Z,31.00
2017-12-02T16:49:50.245Z,40.70
2017-12-02T16:52:29.336Z,33.72
2017-12-02T16:54:59.620Z,44.90
2017-12-02T16:57:37.793Z,42.97
2017-12-02T17:00:13.235Z,32.22
2017-12-02T17:02:51.431Z,37.70
2017-12-02T17:05:29.358Z,43.75
2017-12-02T17:08:07.588Z,36.47
2017-12-02T17:10:41.830Z,37.33
2017-12-02T17:13:13.144Z,36.05
2017-12-02T17:15:45.055Z,35.55
2017-12-02T17:18:17.296Z,35.60
2017-12-02T17:20:46.003Z,30.65
2017-12-02T17:23:13.263Z,33.85
2017-12-02T17:25:40.912Z,29.77
2017-12-02T17:28:09.386Z,33.83
2017-12-02T17:30:37.523Z,30.58
2017-12-02T17:33:10.102Z,31.15
2017-12-02T17:35:40.760Z,31.52
2017-12-02T17:38:16.246Z,32.03
2017-12-02T17:40:52.849Z,30.85
2017-12-02T17:43:23.225Z,35.55
2017-12-02T17:45:53.439Z,34.38
2017-12-02T17:48:25.065Z,39.08
2017-12-02T17:51:02.876Z,39.33
2017-12-02T17:53:34.954Z,31.12
2017-12-02T17:56:08.425Z,35.65
2017-12-02T17:58:38.584Z,31.85
2017-12-02T18:01:06.251Z,38.90
2017-12-02T18:03:33.168Z,52.42
2017-12-02T18:06:00.102Z,43.40
2017-12-02T18:08:27.072Z,44.95
2017-12-02T18:10:53.961Z,34.67
2017-12-02T18:13:20.916Z,51.63
2017-12-02T18:15:47.803Z,37.63
2017-12-02T18:18:14.680Z,33.20
2017-12-02T18:20:42.356Z,31.50
2017-12-02T18:23:09.212Z,36.03
2017-12-02T18:25:36.138Z,35.30
2017-12-02T18:28:03.798Z,36.55
2017-12-02T18:30:31.455Z,32.45
2017-12-02T18:32:58.470Z,36.67
2017-12-02T18:35:25.464Z,33.10
2017-12-02T18:37:53.184Z,37.20
2017-12-02T18:40:20.078Z,40.88
2017-12-02T18:42:47.697Z,41.75
2017-12-02T18:45:14.741Z,36.67
2017-12-02T18:47:41.794Z,41.72
2017-12-02T18:50:08.737Z,37.67
2017-12-02T18:52:35.711Z,37.92
2017-12-02T18:55:03.368Z,39.67
2017-12-02T18:57:30.519Z,35.42
2017-12-02T18:59:57.519Z,37.22
2017-12-02T19:02:24.423Z,34.60
2017-12-02T19:04:51.356Z,36.95
2017-12-02T19:07:18.273Z,31.55
2017-12-02T19:09:45.229Z,36.40
2017-12-02T19:12:12.139Z,32.33
2017-12-02T19:14:39.137Z,36.58
2017-12-02T19:17:06.076Z,30.62
2017-12-02T19:19:33.142Z,35.65
2017-12-02T19:22:00.128Z,36.47
2017-12-02T19:24:27.004Z,42.95
2017-12-02T19:26:53.860Z,44.00
2017-12-02T19:29:20.766Z,46.15
2017-12-02T19:31:47.661Z,41.45
2017-12-02T19:34:14.656Z,41.58
2017-12-02T19:36:41.699Z,44.38
2017-12-02T19:39:08.645Z,41.50
2017-12-02T19:41:35.582Z,41.55
2017-12-02T19:44:03.343Z,39.72
2017-12-02T19:46:31.069Z,47.70
2017-12-02T19:48:58.015Z,39.08
2017-12-02T19:51:25.978Z,37.15
2017-12-02T19:53:53.979Z,39.40
2017-12-02T19:56:21.670Z,47.38
2017-12-02T19:58:50.405Z,40.35
2017-12-02T20:01:17.395Z,41.75
2017-12-02T20:03:49.571Z,41.70
2017-12-02T20:06:16.611Z,40.28
2017-12-02T20:08:44.121Z,36.50
2017-12-02T20:11:11.362Z,40.58
2017-12-02T20:13:38.521Z,39.10
2017-12-02T20:16:08.519Z,38.97
2017-12-02T20:18:36.715Z,41.35
2017-12-02T20:21:03.696Z,39.45
2017-12-02T20:23:39.758Z,43.85
2017-12-02T20:26:13.182Z,38.53
2017-12-02T20:28:46.944Z,41.05
2017-12-02T20:31:17.893Z,35.40
2017-12-02T20:33:54.667Z,42.65
2017-12-02T20:36:30.727Z,40.90
2017-12-02T20:39:02.391Z,39.28
2017-12-02T20:41:38.968Z,42.00
2017-12-02T20:44:17.657Z,44.25
2017-12-02T20:46:45.938Z,44.47
2017-12-02T20:49:20.358Z,46.63
2017-12-02T20:51:52.563Z,37.88
2017-12-02T20:54:26.667Z,39.97
2017-12-02T20:56:59.232Z,44.38
2017-12-02T20:59:35.585Z,40.83
2017-12-02T21:02:03.279Z,44.80
2017-12-02T21:04:33.733Z,52.10
2017-12-02T21:07:03.488Z,44.08
2017-12-02T21:09:31.965Z,40.08
2017-12-02T21:12:00.767Z,42.50
2017-12-02T21:14:28.687Z,36.97
2017-12-02T21:16:58.371Z,38.10
2017-12-02T21:19:27.339Z,35.42
2017-12-02T21:21:55.175Z,35.17
2017-12-02T21:24:23.032Z,34.25
2017-12-02T21:26:49.994Z,37.63
2017-12-02T21:29:17.097Z,35.30
2017-12-02T21:31:44.761Z,38.53
2017-12-02T21:34:13.171Z,39.53
2017-12-02T21:36:42.042Z,36.13
2017-12-02T21:39:10.690Z,37.38
2017-12-02T21:41:37.775Z,34.22
2017-12-02T21:44:07.850Z,32.53
2017-12-02T21:46:37.598Z,33.60
2017-12-02T21:49:06.879Z,35.90
2017-12-02T21:51:34.047Z,35.25
2017-12-02T21:54:00.984Z,31.60
2017-12-02T21:56:31.307Z,34.70
2017-12-02T21:59:00.512Z,35.30
2017-12-02T22:01:29.442Z,33.85
2017-12-02T22:03:56.538Z,36.92
2017-12-02T22:06:26.789Z,37.03
2017-12-02T22:08:56.718Z,40.10
2017-12-02T22:11:25.323Z,37.58
2017-12-02T22:13:52.348Z,30.35
2017-12-02T22:16:20.100Z,36.80
2017-12-02T22:18:47.223Z,36.65
2017-12-02T22:21:14.171Z,35.28
2017-12-02T22:23:43.356Z,39.95
2017-12-02T22:26:10.738Z,36.67
2017-12-02T22:28:47.273Z,40.55
2017-12-02T22:31:17.284Z,31.17
2017-12-02T22:33:46.588Z,32.97
2017-12-02T22:36:27.797Z,34.40
2017-12-02T22:38:56.016Z,30.45
2017-12-02T22:41:36.842Z,35.25
2017-12-02T22:44:16.737Z,35.20
2017-12-02T22:46:44.912Z,35.72
2017-12-02T22:49:19.843Z,33.80
2017-12-02T22:52:00.421Z,32.95
2017-12-02T22:54:40.408Z,34.40
2017-12-02T22:57:20.421Z,37.28
2017-12-02T22:59:48.248Z,36.55
2017-12-02T23:02:15.682Z,35.20
2017-12-02T23:04:52.675Z,40.65
2017-12-02T23:07:31.550Z,35.03
2017-12-02T23:10:02.215Z,35.17
2017-12-02T23:12:37.816Z,35.50
2017-12-02T23:15:17.794Z,32.83
2017-12-02T23:17:52.715Z,33.25
2017-12-02T23:20:27.100Z,35.83
2017-12-02T23:23:06.344Z,37.33
2017-12-02T23:25:46.487Z,35.08
2017-12-02T23:28:13.484Z,32.58
2017-12-02T23:30:40.469Z,31.40
2017-12-02T23:33:07.439Z,36.78
2017-12-02T23:35:34.319Z,37.78
2017-12-02T23:38:01.972Z,32.50
2017-12-02T23:40:32.956Z,34.40
2017-12-02T23:43:00.093Z,37.65
2017-12-02T23:45:29.204Z,34.63
2017-12-02T23:48:00.294Z,34.83
2017-12-02T23:50:27.479Z,35.70
2017-12-02T23:52:54.949Z,35.30
2017-12-02T23:55:24.846Z,31.77
2017-12-02T23:57:56.652Z,32.60
